createdAt,value
2023-04-11T00:01:24.338Z,51.91
2023-04-11T00:03:51.017Z,51.82
2023-04-11T00:06:18.649Z,51.63
2023-04-11T00:08:45.243Z,51.52
2023-04-11T00:11:11.553Z,51.50
2023-04-11T00:13:38.475Z,51.41
2023-04-11T00:16:05.516Z,51.32
2023-04-11T00:18:32.048Z,51.38
2023-04-11T00:20:58.483Z,51.57
2023-04-11T00:23:24.975Z,51.38
2023-04-11T00:25:51.397Z,51.52
2023-04-11T00:28:17.834Z,51.44
2023-04-11T00:30:44.273Z,51.40
2023-04-11T00:33:11.000Z,51.47
2023-04-11T00:35:39.416Z,51.69
2023-04-11T00:38:06.115Z,51.96
2023-04-11T00:40:32.580Z,51.87
2023-04-11T00:42:59.003Z,52.09
2023-04-11T00:45:25.992Z,52.04
2023-04-11T00:47:52.605Z,52.17
2023-04-11T00:50:21.962Z,52.18
2023-04-11T00:55:41.089Z,52.11
2023-04-11T00:58:08.611Z,51.85
2023-04-11T01:00:35.831Z,51.86
2023-04-11T01:03:02.783Z,51.80
2023-04-11T01:05:31.522Z,51.55
2023-04-11T01:07:59.459Z,51.62
2023-04-11T01:10:30.684Z,51.40
2023-04-11T01:12:59.691Z,51.41
2023-04-11T01:15:26.194Z,51.46
2023-04-11T01:17:55.660Z,51.47
2023-04-11T01:20:24.464Z,51.43
2023-04-11T01:22:51.171Z,51.54
2023-04-11T01:25:22.412Z,51.57
2023-04-11T01:27:48.887Z,51.49
2023-04-11T01:30:16.245Z,51.15
2023-04-11T01:32:42.869Z,51.18
2023-04-11T01:35:11.295Z,51.37
2023-04-11T01:37:38.369Z,51.31
2023-04-11T01:40:05.504Z,51.24
2023-04-11T01:42:32.734Z,51.19
2023-04-11T01:45:00.266Z,51.21
2023-04-11T01:47:26.679Z,51.04
2023-04-11T01:49:53.772Z,51.68
2023-04-11T01:52:20.241Z,51.05
2023-04-11T01:57:16.524Z,51.25
2023-04-11T01:59:43.029Z,51.15
2023-04-11T02:02:09.712Z,51.28
2023-04-11T02:04:36.391Z,51.17
2023-04-11T02:07:02.800Z,51.34
2023-04-11T02:09:29.292Z,51.64
2023-04-11T02:11:57.098Z,51.43
2023-04-11T02:14:24.329Z,51.99
2023-04-11T02:16:55.428Z,51.95
2023-04-11T02:19:23.479Z,51.96
2023-04-11T02:21:49.949Z,52.15
2023-04-11T02:24:16.625Z,51.80
2023-04-11T02:26:44.484Z,51.85
2023-04-11T02:29:11.041Z,51.86
2023-04-11T02:31:38.218Z,51.91
2023-04-11T02:34:04.913Z,52.00
2023-04-11T02:36:31.367Z,52.03
2023-04-11T02:38:58.026Z,51.99
2023-04-11T02:41:24.621Z,52.13
2023-04-11T02:43:51.103Z,51.92
2023-04-11T02:46:17.755Z,51.81
2023-04-11T02:48:44.382Z,51.55
2023-04-11T02:51:10.950Z,51.28
2023-04-11T02:53:37.497Z,51.18
2023-04-11T02:56:04.207Z,51.24
2023-04-11T02:58:30.681Z,51.16
2023-04-11T03:00:57.311Z,50.55
2023-04-11T03:03:23.813Z,50.57
2023-04-11T03:05:50.349Z,50.53
2023-04-11T03:08:16.962Z,50.68
2023-04-11T03:10:43.413Z,50.35
2023-04-11T03:13:09.922Z,50.12
2023-04-11T03:15:36.506Z,49.98
2023-04-11T03:18:03.067Z,49.98
2023-04-11T03:20:29.638Z,49.96
2023-04-11T03:22:56.239Z,49.64
2023-04-11T03:25:22.823Z,50.13
2023-04-11T03:30:18.001Z,49.56
2023-04-11T03:32:44.499Z,49.77
2023-04-11T03:35:10.986Z,49.84
2023-04-11T03:37:37.605Z,50.01
2023-04-11T03:40:08.525Z,49.79
2023-04-11T03:42:35.917Z,49.98
2023-04-11T03:45:02.425Z,50.35
2023-04-11T03:47:28.858Z,50.35
2023-04-11T03:49:55.281Z,50.49
2023-04-11T03:52:21.731Z,50.50
2023-04-11T03:54:48.185Z,50.43
2023-04-11T03:57:14.607Z,50.53
2023-04-11T03:59:44.181Z,50.97
2023-04-11T04:02:10.946Z,51.01
2023-04-11T04:04:38.525Z,51.14
2023-04-11T04:07:05.116Z,51.11
2023-04-11T04:09:31.665Z,51.23
2023-04-11T04:11:58.122Z,51.52
2023-04-11T04:14:24.521Z,51.47
2023-04-11T04:16:51.019Z,51.66
2023-04-11T04:19:17.467Z,51.90
2023-04-11T04:21:45.842Z,52.51
2023-04-11T04:24:12.554Z,52.76
2023-04-11T04:26:39.806Z,52.78
2023-04-11T04:31:43.342Z,53.34
2023-04-11T04:34:09.865Z,53.57
2023-04-11T04:36:47.843Z,53.57
2023-04-11T04:39:18.857Z,53.87
2023-04-11T04:41:48.747Z,54.63
2023-04-11T04:44:16.417Z,54.58
2023-04-11T04:46:43.286Z,54.70
2023-04-11T04:49:09.740Z,55.41
2023-04-11T04:51:38.664Z,55.43
2023-04-11T04:54:05.188Z,55.78
2023-04-11T04:56:31.938Z,56.64
2023-04-11T04:58:58.574Z,59.35
2023-04-11T05:01:33.250Z,60.72
2023-04-11T05:04:01.022Z,60.37
2023-04-11T05:06:32.325Z,61.56
2023-04-11T05:09:00.550Z,62.99
2023-04-11T05:11:28.255Z,64.11
2023-04-11T05:13:55.751Z,65.09
2023-04-11T05:16:22.401Z,65.72
2023-04-11T05:18:48.890Z,66.93
2023-04-11T05:21:15.851Z,66.76
2023-04-11T05:23:42.297Z,66.94
2023-04-11T05:26:11.890Z,67.38
2023-04-11T05:28:38.520Z,67.78
2023-04-11T05:31:05.561Z,67.82
2023-04-11T05:33:32.512Z,68.52
2023-04-11T05:35:59.165Z,68.24
2023-04-11T05:38:25.928Z,68.85
2023-04-11T05:40:52.706Z,69.10
2023-04-11T05:43:19.178Z,69.64
2023-04-11T05:45:48.099Z,69.49
2023-04-11T05:48:16.167Z,71.18
2023-04-11T05:50:42.956Z,71.64
2023-04-11T05:53:09.575Z,71.63
2023-04-11T05:55:36.617Z,71.85
2023-04-11T05:58:03.037Z,71.76
2023-04-11T06:00:31.172Z,71.82
2023-04-11T06:02:58.854Z,72.00
2023-04-11T06:05:26.777Z,72.29
2023-04-11T06:07:53.560Z,72.45
2023-04-11T06:10:20.395Z,72.53
2023-04-11T06:12:46.875Z,72.43
2023-04-11T06:15:13.990Z,72.72
2023-04-11T06:17:40.561Z,73.11
2023-04-11T06:20:08.509Z,73.97
2023-04-11T06:22:34.987Z,73.95
2023-04-11T06:25:01.519Z,74.44
2023-04-11T06:27:28.238Z,74.22
2023-04-11T06:29:54.808Z,74.44
2023-04-11T06:32:22.190Z,75.32
2023-04-11T06:34:48.692Z,75.67
2023-04-11T06:37:15.657Z,76.47
2023-04-11T06:39:42.201Z,77.15
2023-04-11T06:42:08.825Z,76.60
2023-04-11T06:44:36.125Z,76.82
2023-04-11T06:47:03.342Z,76.91
2023-04-11T06:49:29.982Z,77.38
2023-04-11T06:51:56.841Z,77.79
2023-04-11T06:54:23.788Z,78.20
2023-04-11T06:56:53.200Z,78.06
2023-04-11T06:59:20.716Z,78.75
2023-04-11T07:01:48.996Z,78.85
2023-04-11T07:07:11.107Z,81.26
2023-04-11T07:09:37.619Z,81.40
2023-04-11T07:12:05.157Z,82.93
2023-04-11T07:14:31.754Z,83.56
2023-04-11T07:16:58.176Z,84.08
2023-04-11T07:19:24.622Z,85.49
2023-04-11T07:21:51.393Z,86.71
2023-04-11T07:24:18.687Z,88.03
2023-04-11T07:26:46.753Z,89.25
2023-04-11T07:29:14.827Z,89.57
2023-04-11T07:31:41.676Z,90.21
2023-04-11T07:34:08.256Z,89.93
2023-04-11T07:36:34.931Z,90.96
2023-04-11T07:39:01.668Z,91.19
2023-04-11T07:41:28.189Z,91.80
2023-04-11T07:43:55.134Z,91.25
2023-04-11T07:46:22.012Z,92.02
2023-04-11T07:48:48.576Z,91.83
2023-04-11T07:51:15.170Z,92.52
2023-04-11T07:53:41.651Z,92.40
2023-04-11T07:56:08.524Z,91.59
2023-04-11T07:58:35.175Z,91.60
2023-04-11T08:01:02.748Z,91.64
2023-04-11T08:03:30.083Z,91.28
2023-04-11T08:05:57.026Z,90.54
2023-04-11T08:08:23.683Z,90.43
2023-04-11T08:10:52.180Z,90.18
2023-04-11T08:13:18.938Z,89.25
2023-04-11T08:15:45.930Z,89.58
2023-04-11T08:18:12.625Z,89.09
2023-04-11T08:20:40.750Z,88.98
2023-04-11T08:23:08.968Z,88.18
2023-04-11T08:25:36.635Z,88.57
2023-04-11T08:28:05.040Z,88.39
2023-04-11T08:30:31.705Z,87.45
2023-04-11T08:32:58.317Z,87.09
2023-04-11T08:35:24.864Z,85.37
2023-04-11T08:37:51.624Z,84.80
2023-04-11T08:40:18.500Z,85.00
2023-04-11T08:42:46.718Z,84.14
2023-04-11T08:45:13.702Z,84.00
2023-04-11T08:47:42.510Z,84.02
2023-04-11T08:50:10.709Z,83.84
2023-04-11T08:52:38.715Z,84.91
2023-04-11T08:55:05.568Z,84.22
2023-04-11T08:57:33.367Z,83.81
2023-04-11T09:00:12.451Z,83.54
2023-04-11T09:03:00.706Z,83.70
2023-04-11T09:05:41.544Z,83.87
2023-04-11T09:08:10.520Z,81.95
2023-04-11T09:10:41.353Z,83.76
2023-04-11T09:13:28.974Z,84.96
2023-04-11T09:16:12.111Z,86.35
2023-04-11T09:18:40.780Z,82.88
2023-04-11T09:21:11.074Z,83.60
2023-04-11T09:23:38.454Z,82.80
2023-04-11T09:26:06.701Z,82.43
2023-04-11T09:28:52.641Z,82.76
2023-04-11T09:31:20.381Z,81.14
2023-04-11T09:33:54.879Z,82.31
2023-04-11T09:36:24.113Z,82.41
2023-04-11T09:38:51.727Z,82.14
2023-04-11T09:41:31.588Z,82.17
2023-04-11T09:43:58.862Z,82.03
2023-04-11T09:46:25.770Z,81.75
2023-04-11T09:48:54.700Z,80.41
2023-04-11T09:51:34.932Z,79.93
2023-04-11T09:54:03.724Z,79.58
2023-04-11T09:56:31.814Z,80.86
2023-04-11T09:58:59.886Z,78.92
2023-04-11T10:01:26.400Z,79.03
2023-04-11T10:03:54.134Z,76.65
2023-04-11T10:06:31.874Z,77.08
2023-04-11T10:09:08.505Z,75.97
2023-04-11T10:11:36.020Z,75.81
2023-04-11T10:14:02.575Z,73.85
2023-04-11T10:16:32.473Z,73.40
2023-04-11T10:19:00.240Z,73.86
2023-04-11T10:21:32.771Z,72.89
2023-04-11T10:24:21.181Z,71.42
2023-04-11T10:26:55.108Z,71.50
2023-04-11T10:29:45.392Z,71.81
2023-04-11T10:32:21.876Z,71.78
2023-04-11T10:34:54.172Z,70.98
2023-04-11T10:37:29.773Z,66.14
2023-04-11T10:40:02.209Z,65.82
2023-04-11T10:42:44.545Z,62.69
2023-04-11T10:45:26.847Z,63.75
2023-04-11T10:47:56.613Z,63.69
2023-04-11T10:50:26.316Z,64.49
2023-04-11T10:52:53.765Z,58.88
2023-04-11T10:55:20.687Z,60.01
2023-04-11T10:58:06.985Z,61.66
2023-04-11T11:00:52.243Z,59.62
2023-04-11T11:03:26.561Z,61.48
2023-04-11T11:06:07.651Z,66.80
2023-04-11T11:08:41.454Z,72.64
2023-04-11T11:11:10.060Z,76.52
2023-04-11T11:13:44.810Z,77.80
2023-04-11T11:16:16.641Z,76.41
2023-04-11T11:18:46.970Z,78.95
2023-04-11T11:21:20.652Z,79.82
2023-04-11T11:23:57.605Z,80.33
2023-04-11T11:26:41.890Z,80.63
2023-04-11T11:29:09.728Z,80.52
2023-04-11T11:31:39.101Z,79.53
2023-04-11T11:34:21.904Z,81.91
2023-04-11T11:36:49.906Z,82.44
2023-04-11T11:39:16.634Z,76.05
2023-04-11T11:41:43.185Z,75.33
2023-04-11T11:44:24.468Z,76.78
2023-04-11T11:47:09.277Z,77.38
2023-04-11T11:49:51.988Z,77.19
2023-04-11T11:52:39.814Z,77.40
2023-04-11T11:55:11.429Z,80.02
2023-04-11T11:57:44.600Z,80.48
2023-04-11T12:00:11.779Z,78.97
2023-04-11T12:02:40.135Z,79.94
2023-04-11T12:05:07.930Z,80.73
2023-04-11T12:07:37.284Z,82.70
2023-04-11T12:10:08.982Z,82.20
2023-04-11T12:12:38.179Z,80.75
2023-04-11T12:15:07.697Z,80.84
2023-04-11T12:17:38.334Z,80.88
2023-04-11T12:20:08.764Z,78.97
2023-04-11T12:22:35.710Z,78.56
2023-04-11T12:25:13.731Z,78.91
2023-04-11T12:27:42.762Z,77.51
2023-04-11T12:30:10.708Z,80.41
2023-04-11T12:32:37.883Z,77.43
2023-04-11T12:35:06.770Z,78.32
2023-04-11T12:37:33.869Z,77.69
2023-04-11T12:40:01.669Z,77.87
2023-04-11T12:42:28.330Z,71.64
2023-04-11T12:44:54.857Z,72.61
2023-04-11T12:47:21.421Z,70.84
2023-04-11T12:49:47.927Z,70.31
2023-04-11T12:52:14.524Z,69.38
2023-04-11T12:54:41.862Z,71.67
2023-04-11T12:57:15.311Z,68.18
2023-04-11T12:59:44.013Z,63.80
2023-04-11T13:02:10.757Z,62.26
2023-04-11T13:04:37.483Z,62.11
2023-04-11T13:07:04.131Z,62.73
2023-04-11T13:09:33.722Z,62.84
2023-04-11T13:12:04.358Z,62.41
2023-04-11T13:14:31.095Z,62.42
2023-04-11T13:16:57.600Z,59.19
2023-04-11T13:19:24.381Z,58.57
2023-04-11T13:21:51.002Z,60.37
2023-04-11T13:24:17.626Z,59.84
2023-04-11T13:26:45.630Z,58.74
2023-04-11T13:29:12.585Z,58.61
2023-04-11T13:31:39.158Z,57.88
2023-04-11T13:34:05.691Z,59.57
2023-04-11T13:36:32.433Z,60.09
2023-04-11T13:39:07.998Z,60.94
2023-04-11T13:41:34.756Z,66.46
2023-04-11T13:44:01.395Z,64.60
2023-04-11T13:46:28.173Z,69.07
2023-04-11T13:48:54.732Z,70.44
2023-04-11T13:51:21.391Z,73.38
2023-04-11T13:53:47.930Z,74.94
2023-04-11T13:56:14.353Z,75.59
2023-04-11T13:58:40.891Z,75.68
2023-04-11T14:01:08.186Z,78.62
2023-04-11T14:03:34.799Z,77.53
2023-04-11T14:06:01.626Z,79.84
2023-04-11T14:08:29.055Z,79.77
2023-04-11T14:10:56.036Z,79.53
2023-04-11T14:13:22.663Z,79.02
2023-04-11T14:15:54.852Z,78.03
2023-04-11T14:18:31.797Z,77.82
2023-04-11T14:21:01.110Z,77.96
2023-04-11T14:23:28.556Z,80.71
2023-04-11T14:25:55.151Z,79.44
2023-04-11T14:28:21.949Z,78.92
2023-04-11T14:30:48.612Z,77.83
2023-04-11T14:33:15.709Z,77.22
2023-04-11T14:35:42.889Z,73.65
2023-04-11T14:38:09.292Z,71.30
2023-04-11T14:40:35.711Z,73.00
2023-04-11T14:43:02.216Z,74.00
2023-04-11T14:45:28.672Z,61.99
2023-04-11T14:47:55.169Z,63.36
2023-04-11T14:50:21.646Z,66.88
2023-04-11T14:52:48.375Z,68.93
2023-04-11T14:55:14.878Z,67.11
2023-04-11T14:57:53.058Z,66.61
2023-04-11T15:00:20.225Z,68.12
2023-04-11T15:02:49.384Z,70.04
2023-04-11T15:05:18.319Z,61.83
2023-04-11T15:07:46.437Z,59.16
2023-04-11T15:10:13.894Z,62.14
2023-04-11T15:12:40.714Z,62.23
2023-04-11T15:15:11.794Z,64.30
2023-04-11T15:17:49.301Z,65.02
2023-04-11T15:22:45.468Z,63.61
2023-04-11T15:25:13.925Z,64.09
2023-04-11T15:27:40.967Z,64.58
2023-04-11T15:30:07.785Z,63.63
2023-04-11T15:32:34.638Z,61.68
2023-04-11T15:35:01.487Z,62.47
2023-04-11T15:37:28.113Z,57.49
2023-04-11T15:39:54.551Z,58.43
2023-04-11T15:42:21.115Z,59.05
2023-04-11T15:44:47.617Z,59.19
2023-04-11T15:47:16.564Z,60.26
2023-04-11T15:49:43.148Z,60.99
2023-04-11T15:52:09.615Z,59.67
2023-04-11T15:54:36.252Z,59.63
2023-04-11T15:57:03.722Z,58.79
2023-04-11T15:59:30.738Z,58.43
2023-04-11T16:01:57.628Z,59.85
2023-04-11T16:04:24.556Z,57.70
2023-04-11T16:06:51.685Z,58.30
2023-04-11T16:09:18.170Z,59.78
2023-04-11T16:11:44.595Z,58.76
2023-04-11T16:14:11.421Z,59.53
2023-04-11T16:16:38.097Z,59.51
2023-04-11T16:19:05.332Z,61.02
2023-04-11T16:21:31.901Z,62.50
2023-04-11T16:23:58.637Z,64.56
2023-04-11T16:26:25.389Z,62.79
2023-04-11T16:29:01.731Z,62.77
2023-04-11T16:31:28.401Z,64.57
2023-04-11T16:33:55.345Z,65.96
2023-04-11T16:36:22.453Z,64.67
2023-04-11T16:38:51.990Z,65.45
2023-04-11T16:41:18.829Z,64.17
2023-04-11T16:43:45.460Z,61.69
2023-04-11T16:46:16.315Z,60.82
2023-04-11T16:48:43.407Z,59.13
2023-04-11T16:51:11.085Z,64.27
2023-04-11T16:53:38.417Z,60.21
2023-04-11T16:56:05.536Z,57.51
2023-04-11T16:58:32.508Z,57.16
2023-04-11T17:00:59.906Z,58.73
2023-04-11T17:03:27.689Z,58.51
2023-04-11T17:05:54.629Z,59.78
2023-04-11T17:08:21.551Z,58.53
2023-04-11T17:10:47.995Z,59.60
2023-04-11T17:13:15.969Z,59.42
2023-04-11T17:15:42.821Z,59.51
2023-04-11T17:18:09.450Z,59.53
2023-04-11T17:20:36.089Z,58.58
2023-04-11T17:23:02.527Z,57.85
2023-04-11T17:25:30.113Z,57.89
2023-04-11T17:27:57.560Z,58.17
2023-04-11T17:30:24.211Z,58.01
2023-04-11T17:32:50.759Z,58.50
2023-04-11T17:35:17.279Z,58.09
2023-04-11T17:37:43.731Z,57.66
2023-04-11T17:40:12.071Z,58.18
2023-04-11T17:42:38.769Z,58.22
2023-04-11T17:45:16.691Z,58.07
2023-04-11T17:47:44.759Z,58.46
2023-04-11T17:50:15.830Z,58.85
2023-04-11T17:52:44.439Z,60.77
2023-04-11T17:55:12.995Z,59.56
2023-04-11T17:57:40.183Z,59.12
2023-04-11T18:00:22.175Z,60.09
2023-04-11T18:03:00.282Z,59.59
2023-04-11T18:05:29.162Z,60.60
2023-04-11T18:07:58.112Z,60.69
2023-04-11T18:10:29.226Z,59.90
2023-04-11T18:12:57.408Z,62.43
2023-04-11T18:15:25.143Z,66.56
2023-04-11T18:17:52.463Z,63.31
2023-04-11T18:20:19.181Z,67.08
2023-04-11T18:22:48.963Z,66.37
2023-04-11T18:25:16.241Z,65.11
2023-04-11T18:27:43.223Z,67.18
2023-04-11T18:30:11.815Z,66.09
2023-04-11T18:32:43.265Z,66.59
2023-04-11T18:35:12.727Z,67.61
2023-04-11T18:37:43.343Z,67.52
2023-04-11T18:40:11.975Z,68.33
2023-04-11T18:42:39.600Z,69.97
2023-04-11T18:45:07.057Z,69.95
2023-04-11T18:47:33.938Z,70.25
2023-04-11T18:50:01.879Z,69.76
2023-04-11T18:52:29.261Z,70.80
2023-04-11T18:54:56.402Z,68.08
2023-04-11T18:57:23.203Z,68.12
2023-04-11T18:59:50.892Z,70.33
2023-04-11T19:02:19.427Z,67.10
2023-04-11T19:04:47.405Z,68.39
2023-04-11T19:07:15.420Z,66.07
2023-04-11T19:09:42.457Z,66.09
2023-04-11T19:12:08.959Z,68.13
2023-04-11T19:14:36.429Z,68.97
2023-04-11T19:17:05.358Z,69.86
2023-04-11T19:19:32.291Z,70.43
2023-04-11T19:21:58.786Z,70.40
2023-04-11T19:24:25.971Z,71.58
2023-04-11T19:26:53.745Z,72.08
2023-04-11T19:29:20.773Z,71.32
2023-04-11T19:31:47.230Z,71.99
2023-04-11T19:34:15.286Z,72.28
2023-04-11T19:36:42.842Z,69.24
2023-04-11T19:39:10.729Z,69.08
2023-04-11T19:41:37.228Z,69.75
2023-04-11T19:44:03.793Z,71.16
2023-04-11T19:46:30.524Z,72.25
2023-04-11T19:48:58.547Z,71.34
2023-04-11T19:51:24.951Z,71.36
2023-04-11T19:53:51.472Z,71.51
2023-04-11T19:56:17.960Z,71.32
2023-04-11T19:58:44.552Z,71.17
2023-04-11T20:01:11.170Z,71.36
2023-04-11T20:03:37.731Z,73.34
2023-04-11T20:06:05.973Z,74.28
2023-04-11T20:08:32.637Z,74.86
2023-04-11T20:10:59.320Z,75.83
2023-04-11T20:13:25.830Z,76.40
2023-04-11T20:15:52.288Z,76.69
2023-04-11T20:18:19.083Z,77.07
2023-04-11T20:20:45.576Z,77.79
2023-04-11T20:23:15.443Z,78.17
2023-04-11T20:25:42.909Z,78.74
2023-04-11T20:28:09.846Z,78.78
2023-04-11T20:30:38.841Z,78.91
2023-04-11T20:33:05.546Z,78.47
2023-04-11T20:35:32.213Z,78.20
2023-04-11T20:37:59.078Z,78.17
2023-04-11T20:40:25.945Z,78.51
2023-04-11T20:42:52.564Z,78.93
2023-04-11T20:45:21.699Z,79.53
2023-04-11T20:47:50.280Z,79.36
2023-04-11T20:50:17.703Z,80.46
2023-04-11T20:52:46.743Z,79.40
2023-04-11T20:55:14.410Z,77.48
2023-04-11T20:57:41.285Z,76.45
2023-04-11T21:00:17.154Z,77.41
2023-04-11T21:02:46.792Z,77.16
2023-04-11T21:05:14.669Z,77.55
2023-04-11T21:07:42.209Z,79.76
2023-04-11T21:10:09.615Z,78.34
2023-04-11T21:12:36.764Z,78.04
2023-04-11T21:15:04.228Z,77.29
2023-04-11T21:17:35.220Z,78.99
2023-04-11T21:20:10.615Z,79.47
2023-04-11T21:22:37.288Z,81.62
2023-04-11T21:25:04.225Z,82.69
2023-04-11T21:27:31.236Z,83.02
2023-04-11T21:32:31.818Z,82.16
2023-04-11T21:34:58.267Z,82.28
2023-04-11T21:37:24.735Z,82.44
2023-04-11T21:39:54.307Z,82.33
2023-04-11T21:42:21.089Z,82.73
2023-04-11T21:44:47.564Z,82.77
2023-04-11T21:47:14.052Z,82.39
2023-04-11T21:49:40.552Z,82.86
2023-04-11T21:52:07.009Z,82.91
2023-04-11T21:54:34.019Z,82.57
2023-04-11T21:57:01.674Z,82.63
2023-04-11T21:59:28.184Z,82.55
2023-04-11T22:02:01.020Z,82.39
2023-04-11T22:04:29.028Z,82.85
2023-04-11T22:06:58.393Z,82.87
2023-04-11T22:09:24.884Z,82.73
2023-04-11T22:11:51.613Z,82.89
2023-04-11T22:14:19.813Z,82.77
2023-04-11T22:16:49.380Z,83.10
2023-04-11T22:19:19.338Z,83.11
2023-04-11T22:21:55.522Z,83.43
2023-04-11T22:24:30.986Z,83.64
2023-04-11T22:27:04.446Z,83.90
2023-04-11T22:29:31.172Z,83.74
2023-04-11T22:31:59.533Z,84.62
2023-04-11T22:34:27.174Z,84.39
2023-04-11T22:36:53.632Z,84.71
2023-04-11T22:39:20.707Z,84.47
2023-04-11T22:41:50.499Z,84.74
2023-04-11T22:44:17.719Z,84.78
2023-04-11T22:46:59.797Z,86.08
2023-04-11T22:49:26.779Z,85.15
2023-04-11T22:52:02.231Z,84.68
2023-04-11T22:54:28.786Z,85.33
2023-04-11T22:56:57.244Z,85.60
2023-04-11T22:59:24.874Z,85.40
2023-04-11T23:01:53.956Z,85.19
2023-04-11T23:04:22.005Z,85.26
2023-04-11T23:06:50.046Z,85.62
2023-04-11T23:09:20.382Z,85.67
2023-04-11T23:11:47.712Z,86.05
2023-04-11T23:14:15.428Z,86.93
2023-04-11T23:16:43.382Z,87.42
2023-04-11T23:19:10.234Z,86.71
2023-04-11T23:21:39.857Z,86.66
2023-04-11T23:24:09.842Z,86.50
2023-04-11T23:26:37.131Z,86.62
2023-04-11T23:29:04.002Z,86.67
2023-04-11T23:31:31.659Z,86.51
2023-04-11T23:36:28.089Z,86.60
2023-04-11T23:38:54.879Z,86.67
2023-04-11T23:41:21.435Z,86.68
2023-04-11T23:43:48.081Z,86.83
2023-04-11T23:46:14.993Z,86.64
2023-04-11T23:48:41.642Z,86.79
2023-04-11T23:51:08.452Z,86.55
2023-04-11T23:53:34.883Z,86.59
2023-04-11T23:56:01.808Z,86.44
2023-04-11T23:58:28.265Z,86.24
